Terminal Aerodrome Forecast
Issued by NWS

Home | Current Version | Previous Version | Text Only | Print | Product List | Glossary On
Versions: 1 2 3 4 5 6 7 8 9 10 11 12 13 14 15
928
FTUS46 KPDT 261130
TAFBDN
TAF
KBDN 261130Z 2612/2712 VRB05KT P6SM BKN110
     FM261800 20008G15KT P6SM VCSH SCT045 OVC060
     FM262200 22008G15KT P6SM -RA SCT035 OVC050
     FM270600 21006KT P6SM VCSH BKN040 BKN060=

USA.gov is the U.S. government's official web portal to all federal, state and local government web resources and services.